sensor_id;sensor_type;location;lat;lon;timestamp;temperature;humidity
31311;DHT22;17937;51.508;7.534;2022-10-16T00:00:57;14.60;99.90
31311;DHT22;17937;51.508;7.534;2022-10-16T00:03:22;14.60;99.90
31311;DHT22;17937;51.508;7.534;2022-10-16T00:05:48;14.60;99.90
31311;DHT22;17937;51.508;7.534;2022-10-16T00:08:14;14.60;99.90
31311;DHT22;17937;51.508;7.534;2022-10-16T00:10:40;14.60;99.90
31311;DHT22;17937;51.508;7.534;2022-10-16T00:13:06;14.60;99.90
31311;DHT22;17937;51.508;7.534;2022-10-16T00:15:36;14.60;99.90
31311;DHT22;17937;51.508;7.534;2022-10-16T00:18:03;14.60;99.90
31311;DHT22;17937;51.508;7.534;2022-10-16T00:20:29;14.60;99.90
31311;DHT22;17937;51.508;7.534;2022-10-16T00:22:56;14.60;99.90
31311;DHT22;17937;51.508;7.534;2022-10-16T00:25:22;14.50;99.90
31311;DHT22;17937;51.508;7.534;2022-10-16T00:27:48;14.60;99.90
31311;DHT22;17937;51.508;7.534;2022-10-16T00:30:14;14.60;99.90
31311;DHT22;17937;51.508;7.534;2022-10-16T00:32:39;14.50;99.90
31311;DHT22;17937;51.508;7.534;2022-10-16T00:35:05;14.50;99.90
31311;DHT22;17937;51.508;7.534;2022-10-16T00:37:31;14.50;99.90
31311;DHT22;17937;51.508;7.534;2022-10-16T00:39:56;14.50;99.90
31311;DHT22;17937;51.508;7.534;2022-10-16T00:42:22;14.50;99.90
31311;DHT22;17937;51.508;7.534;2022-10-16T00:44:53;14.50;99.90
31311;DHT22;17937;51.508;7.534;2022-10-16T00:47:26;14.50;99.90
31311;DHT22;17937;51.508;7.534;2022-10-16T00:49:58;14.50;99.90
31311;DHT22;17937;51.508;7.534;2022-10-16T00:52:24;14.50;99.90
31311;DHT22;17937;51.508;7.534;2022-10-16T00:54:52;14.40;99.90
31311;DHT22;17937;51.508;7.534;2022-10-16T00:57:18;14.40;99.90
31311;DHT22;17937;51.508;7.534;2022-10-16T00:59:45;14.40;99.90
31311;DHT22;17937;51.508;7.534;2022-10-16T01:02:13;14.40;99.90
31311;DHT22;17937;51.508;7.534;2022-10-16T01:04:50;14.40;99.90
31311;DHT22;17937;51.508;7.534;2022-10-16T01:10:05;14.40;99.90
31311;DHT22;17937;51.508;7.534;2022-10-16T01:18:11;14.30;99.90
31311;DHT22;17937;51.508;7.534;2022-10-16T01:29:08;14.40;99.90
31311;DHT22;17937;51.508;7.534;2022-10-16T01:31:37;14.40;99.90
31311;DHT22;17937;51.508;7.534;2022-10-16T01:34:22;14.40;99.90
31311;DHT22;17937;51.508;7.534;2022-10-16T01:36:56;14.40;99.90
31311;DHT22;17937;51.508;7.534;2022-10-16T01:39:29;14.40;99.90
31311;DHT22;17937;51.508;7.534;2022-10-16T01:42:03;14.40;99.90
31311;DHT22;17937;51.508;7.534;2022-10-16T01:44:32;14.40;99.90
31311;DHT22;17937;51.508;7.534;2022-10-16T01:47:00;14.40;99.90
31311;DHT22;17937;51.508;7.534;2022-10-16T01:49:30;14.40;99.90
31311;DHT22;17937;51.508;7.534;2022-10-16T01:51:59;14.40;99.90
31311;DHT22;17937;51.508;7.534;2022-10-16T01:54:27;14.40;99.90
31311;DHT22;17937;51.508;7.534;2022-10-16T01:56:55;14.40;99.90
31311;DHT22;17937;51.508;7.534;2022-10-16T01:59:24;14.30;99.90
31311;DHT22;17937;51.508;7.534;2022-10-16T02:01:53;14.30;99.90
31311;DHT22;17937;51.508;7.534;2022-10-16T02:04:32;14.30;99.90
31311;DHT22;17937;51.508;7.534;2022-10-16T02:06:58;14.30;99.90
31311;DHT22;17937;51.508;7.534;2022-10-16T02:09:24;14.30;99.90
31311;DHT22;17937;51.508;7.534;2022-10-16T02:11:53;14.30;99.90
31311;DHT22;17937;51.508;7.534;2022-10-16T02:14:20;14.30;99.90
31311;DHT22;17937;51.508;7.534;2022-10-16T02:16:47;14.30;99.90
31311;DHT22;17937;51.508;7.534;2022-10-16T02:19:13;14.30;99.90
31311;DHT22;17937;51.508;7.534;2022-10-16T02:21:44;14.20;99.90
31311;DHT22;17937;51.508;7.534;2022-10-16T02:24:28;14.20;99.90
31311;DHT22;17937;51.508;7.534;2022-10-16T02:27:12;14.20;99.90
31311;DHT22;17937;51.508;7.534;2022-10-16T02:29:41;14.10;99.90
31311;DHT22;17937;51.508;7.534;2022-10-16T02:32:11;14.20;99.90
31311;DHT22;17937;51.508;7.534;2022-10-16T02:34:40;14.10;99.90
31311;DHT22;17937;51.508;7.534;2022-10-16T02:37:06;14.10;99.90
31311;DHT22;17937;51.508;7.534;2022-10-16T02:39:33;14.10;99.90
31311;DHT22;17937;51.508;7.534;2022-10-16T02:41:58;14.10;99.90
31311;DHT22;17937;51.508;7.534;2022-10-16T02:44:24;14.10;99.90
31311;DHT22;17937;51.508;7.534;2022-10-16T02:46:50;14.10;99.90
31311;DHT22;17937;51.508;7.534;2022-10-16T02:49:15;14.10;99.90
31311;DHT22;17937;51.508;7.534;2022-10-16T02:51:41;14.00;99.90
31311;DHT22;17937;51.508;7.534;2022-10-16T02:54:06;14.00;99.90
31311;DHT22;17937;51.508;7.534;2022-10-16T02:56:32;14.00;99.90
31311;DHT22;17937;51.508;7.534;2022-10-16T02:58:58;14.00;99.90
31311;DHT22;17937;51.508;7.534;2022-10-16T03:01:24;14.00;99.90
31311;DHT22;17937;51.508;7.534;2022-10-16T03:03:49;14.00;99.90
31311;DHT22;17937;51.508;7.534;2022-10-16T03:06:15;14.00;99.90
31311;DHT22;17937;51.508;7.534;2022-10-16T03:08:41;14.00;99.90
31311;DHT22;17937;51.508;7.534;2022-10-16T03:11:06;14.00;99.90
31311;DHT22;17937;51.508;7.534;2022-10-16T03:13:32;14.00;99.90
31311;DHT22;17937;51.508;7.534;2022-10-16T03:15:57;13.90;99.90
31311;DHT22;17937;51.508;7.534;2022-10-16T03:18:23;14.00;99.90
31311;DHT22;17937;51.508;7.534;2022-10-16T03:20:49;14.00;99.90
31311;DHT22;17937;51.508;7.534;2022-10-16T03:23:14;14.00;99.90
31311;DHT22;17937;51.508;7.534;2022-10-16T03:25:40;14.00;99.90
31311;DHT22;17937;51.508;7.534;2022-10-16T03:28:05;14.00;99.90
31311;DHT22;17937;51.508;7.534;2022-10-16T03:30:31;14.00;99.90
31311;DHT22;17937;51.508;7.534;2022-10-16T03:32:56;14.00;99.90
31311;DHT22;17937;51.508;7.534;2022-10-16T03:35:23;14.00;99.90
31311;DHT22;17937;51.508;7.534;2022-10-16T03:37:49;14.00;99.90
31311;DHT22;17937;51.508;7.534;2022-10-16T03:40:16;14.00;99.90
31311;DHT22;17937;51.508;7.534;2022-10-16T03:42:42;14.00;99.90
31311;DHT22;17937;51.508;7.534;2022-10-16T03:45:09;14.00;99.90
31311;DHT22;17937;51.508;7.534;2022-10-16T03:47:34;14.00;99.90
31311;DHT22;17937;51.508;7.534;2022-10-16T03:50:00;14.00;99.90
31311;DHT22;17937;51.508;7.534;2022-10-16T03:52:26;14.00;99.90
31311;DHT22;17937;51.508;7.534;2022-10-16T03:54:51;14.00;99.90
31311;DHT22;17937;51.508;7.534;2022-10-16T03:57:17;14.00;99.90
31311;DHT22;17937;51.508;7.534;2022-10-16T03:59:43;14.00;99.90
31311;DHT22;17937;51.508;7.534;2022-10-16T04:02:09;13.90;99.90
31311;DHT22;17937;51.508;7.534;2022-10-16T04:04:34;13.90;99.90
31311;DHT22;17937;51.508;7.534;2022-10-16T04:07:00;13.90;99.90
31311;DHT22;17937;51.508;7.534;2022-10-16T04:09:26;13.90;99.90
31311;DHT22;17937;51.508;7.534;2022-10-16T04:11:52;13.90;99.90
31311;DHT22;17937;51.508;7.534;2022-10-16T04:14:17;13.90;99.90
31311;DHT22;17937;51.508;7.534;2022-10-16T04:16:43;13.90;99.90
31311;DHT22;17937;51.508;7.534;2022-10-16T04:19:09;13.90;99.90
31311;DHT22;17937;51.508;7.534;2022-10-16T04:21:36;13.90;99.90
31311;DHT22;17937;51.508;7.534;2022-10-16T04:24:01;13.90;99.90
31311;DHT22;17937;51.508;7.534;2022-10-16T04:26:27;13.90;99.90
31311;DHT22;17937;51.508;7.534;2022-10-16T04:28:53;13.90;99.90
31311;DHT22;17937;51.508;7.534;2022-10-16T04:31:19;13.90;99.90
31311;DHT22;17937;51.508;7.534;2022-10-16T04:33:45;13.90;99.90
31311;DHT22;17937;51.508;7.534;2022-10-16T04:36:11;13.90;99.90
31311;DHT22;17937;51.508;7.534;2022-10-16T04:38:37;13.80;99.90
31311;DHT22;17937;51.508;7.534;2022-10-16T04:41:03;13.80;99.90
31311;DHT22;17937;51.508;7.534;2022-10-16T04:43:29;13.80;99.90
31311;DHT22;17937;51.508;7.534;2022-10-16T04:45:54;13.80;99.90
31311;DHT22;17937;51.508;7.534;2022-10-16T04:48:22;13.80;99.90
31311;DHT22;17937;51.508;7.534;2022-10-16T04:50:47;13.80;99.90
31311;DHT22;17937;51.508;7.534;2022-10-16T04:53:13;13.80;99.90
31311;DHT22;17937;51.508;7.534;2022-10-16T04:55:40;13.80;99.90
31311;DHT22;17937;51.508;7.534;2022-10-16T04:58:06;13.80;99.90
31311;DHT22;17937;51.508;7.534;2022-10-16T05:00:32;13.80;99.90
31311;DHT22;17937;51.508;7.534;2022-10-16T05:02:58;13.80;99.90
31311;DHT22;17937;51.508;7.534;2022-10-16T05:05:26;13.90;99.90
31311;DHT22;17937;51.508;7.534;2022-10-16T05:07:52;13.90;99.90
31311;DHT22;17937;51.508;7.534;2022-10-16T05:10:17;13.80;99.90
31311;DHT22;17937;51.508;7.534;2022-10-16T05:12:43;13.90;99.90
31311;DHT22;17937;51.508;7.534;2022-10-16T05:15:09;13.90;99.90
31311;DHT22;17937;51.508;7.534;2022-10-16T05:17:35;13.90;99.90
31311;DHT22;17937;51.508;7.534;2022-10-16T05:20:00;13.90;99.90
31311;DHT22;17937;51.508;7.534;2022-10-16T05:22:26;13.90;99.90
31311;DHT22;17937;51.508;7.534;2022-10-16T05:24:51;13.90;99.90
31311;DHT22;17937;51.508;7.534;2022-10-16T05:27:17;13.90;99.90
31311;DHT22;17937;51.508;7.534;2022-10-16T05:29:46;13.90;99.90
31311;DHT22;17937;51.508;7.534;2022-10-16T05:32:16;13.90;99.90
31311;DHT22;17937;51.508;7.534;2022-10-16T05:34:42;13.90;99.90
31311;DHT22;17937;51.508;7.534;2022-10-16T05:37:09;13.90;99.90
31311;DHT22;17937;51.508;7.534;2022-10-16T05:39:35;13.90;99.90
31311;DHT22;17937;51.508;7.534;2022-10-16T05:42:02;13.90;99.90
31311;DHT22;17937;51.508;7.534;2022-10-16T05:44:27;13.90;99.90
31311;DHT22;17937;51.508;7.534;2022-10-16T05:46:53;13.90;99.90
31311;DHT22;17937;51.508;7.534;2022-10-16T05:49:19;13.90;99.90
31311;DHT22;17937;51.508;7.534;2022-10-16T05:51:44;13.90;99.90
31311;DHT22;17937;51.508;7.534;2022-10-16T05:54:10;13.90;99.90
31311;DHT22;17937;51.508;7.534;2022-10-16T05:56:35;13.90;99.90
31311;DHT22;17937;51.508;7.534;2022-10-16T05:59:03;14.00;99.90
31311;DHT22;17937;51.508;7.534;2022-10-16T06:01:29;14.00;99.90
31311;DHT22;17937;51.508;7.534;2022-10-16T06:03:57;14.00;99.90
31311;DHT22;17937;51.508;7.534;2022-10-16T06:06:25;14.00;99.90
31311;DHT22;17937;51.508;7.534;2022-10-16T06:08:52;14.00;99.90
31311;DHT22;17937;51.508;7.534;2022-10-16T06:11:20;14.00;99.90
31311;DHT22;17937;51.508;7.534;2022-10-16T06:13:54;14.00;99.90
31311;DHT22;17937;51.508;7.534;2022-10-16T06:16:22;14.00;99.90
31311;DHT22;17937;51.508;7.534;2022-10-16T06:18:50;14.00;99.90
31311;DHT22;17937;51.508;7.534;2022-10-16T06:21:18;14.10;99.90
31311;DHT22;17937;51.508;7.534;2022-10-16T06:23:44;14.10;99.90
31311;DHT22;17937;51.508;7.534;2022-10-16T06:26:16;14.10;99.90
31311;DHT22;17937;51.508;7.534;2022-10-16T06:28:42;14.10;99.90
31311;DHT22;17937;51.508;7.534;2022-10-16T06:31:09;14.10;99.90
31311;DHT22;17937;51.508;7.534;2022-10-16T06:33:36;14.10;99.90
31311;DHT22;17937;51.508;7.534;2022-10-16T06:36:03;14.20;99.90
31311;DHT22;17937;51.508;7.534;2022-10-16T06:38:29;14.20;99.90
31311;DHT22;17937;51.508;7.534;2022-10-16T06:40:55;14.20;99.90
31311;DHT22;17937;51.508;7.534;2022-10-16T06:43:21;14.20;99.90
31311;DHT22;17937;51.508;7.534;2022-10-16T06:45:56;14.30;99.90
31311;DHT22;17937;51.508;7.534;2022-10-16T06:48:22;14.30;99.90
31311;DHT22;17937;51.508;7.534;2022-10-16T06:51:15;14.40;99.90
31311;DHT22;17937;51.508;7.534;2022-10-16T06:53:42;14.60;99.90
31311;DHT22;17937;51.508;7.534;2022-10-16T06:56:16;15.50;99.90
31311;DHT22;17937;51.508;7.534;2022-10-16T06:58:42;16.60;99.90
31311;DHT22;17937;51.508;7.534;2022-10-16T07:01:09;16.60;99.90
31311;DHT22;17937;51.508;7.534;2022-10-16T07:03:37;16.30;99.90
31311;DHT22;17937;51.508;7.534;2022-10-16T07:06:04;16.20;99.90
31311;DHT22;17937;51.508;7.534;2022-10-16T07:08:37;15.80;99.90
31311;DHT22;17937;51.508;7.534;2022-10-16T07:11:05;15.70;99.90
31311;DHT22;17937;51.508;7.534;2022-10-16T07:13:33;15.40;99.90
31311;DHT22;17937;51.508;7.534;2022-10-16T07:16:08;15.20;99.90
31311;DHT22;17937;51.508;7.534;2022-10-16T07:18:34;15.40;99.90
31311;DHT22;17937;51.508;7.534;2022-10-16T07:21:10;15.90;99.90
31311;DHT22;17937;51.508;7.534;2022-10-16T07:23:37;16.30;99.90
31311;DHT22;17937;51.508;7.534;2022-10-16T07:26:04;17.00;99.90
31311;DHT22;17937;51.508;7.534;2022-10-16T07:28:30;17.70;99.90
31311;DHT22;17937;51.508;7.534;2022-10-16T07:31:04;17.90;99.90
31311;DHT22;17937;51.508;7.534;2022-10-16T07:33:31;17.90;99.90
31311;DHT22;17937;51.508;7.534;2022-10-16T07:35:57;17.70;99.90
31311;DHT22;17937;51.508;7.534;2022-10-16T07:38:23;17.40;99.90
31311;DHT22;17937;51.508;7.534;2022-10-16T07:41:03;17.20;99.90
31311;DHT22;17937;51.508;7.534;2022-10-16T07:43:28;16.90;99.90
31311;DHT22;17937;51.508;7.534;2022-10-16T07:45:55;16.60;99.90
31311;DHT22;17937;51.508;7.534;2022-10-16T07:48:22;16.30;99.90
31311;DHT22;17937;51.508;7.534;2022-10-16T07:50:48;16.20;99.90
31311;DHT22;17937;51.508;7.534;2022-10-16T07:53:14;16.10;99.90
31311;DHT22;17937;51.508;7.534;2022-10-16T07:55:40;16.10;99.90
31311;DHT22;17937;51.508;7.534;2022-10-16T07:58:06;16.10;99.90
31311;DHT22;17937;51.508;7.534;2022-10-16T08:00:32;16.30;99.90
31311;DHT22;17937;51.508;7.534;2022-10-16T08:02:58;16.60;99.90
31311;DHT22;17937;51.508;7.534;2022-10-16T08:05:30;17.10;99.90
31311;DHT22;17937;51.508;7.534;2022-10-16T08:07:56;17.20;99.90
31311;DHT22;17937;51.508;7.534;2022-10-16T08:10:24;17.30;99.90
31311;DHT22;17937;51.508;7.534;2022-10-16T08:12:50;17.80;99.90
31311;DHT22;17937;51.508;7.534;2022-10-16T08:15:16;18.20;99.90
31311;DHT22;17937;51.508;7.534;2022-10-16T08:17:41;18.50;99.90
31311;DHT22;17937;51.508;7.534;2022-10-16T08:20:08;18.90;99.90
31311;DHT22;17937;51.508;7.534;2022-10-16T08:22:33;19.10;99.90
31311;DHT22;17937;51.508;7.534;2022-10-16T08:24:59;19.30;99.90
31311;DHT22;17937;51.508;7.534;2022-10-16T08:27:24;19.60;99.90
31311;DHT22;17937;51.508;7.534;2022-10-16T08:29:50;19.70;99.90
31311;DHT22;17937;51.508;7.534;2022-10-16T08:32:16;19.80;99.90
31311;DHT22;17937;51.508;7.534;2022-10-16T08:34:41;20.00;99.90
31311;DHT22;17937;51.508;7.534;2022-10-16T08:37:07;20.20;99.90
31311;DHT22;17937;51.508;7.534;2022-10-16T08:39:33;20.20;99.90
31311;DHT22;17937;51.508;7.534;2022-10-16T08:45:08;20.50;99.90
31311;DHT22;17937;51.508;7.534;2022-10-16T08:50:12;20.80;99.90
31311;DHT22;17937;51.508;7.534;2022-10-16T08:52:43;20.90;99.90
31311;DHT22;17937;51.508;7.534;2022-10-16T08:55:29;21.00;99.90
31311;DHT22;17937;51.508;7.534;2022-10-16T08:57:55;21.50;99.90
31311;DHT22;17937;51.508;7.534;2022-10-16T09:00:21;22.40;99.90
31311;DHT22;17937;51.508;7.534;2022-10-16T09:05:54;23.70;99.90
31311;DHT22;17937;51.508;7.534;2022-10-16T09:11:12;24.40;99.90
31311;DHT22;17937;51.508;7.534;2022-10-16T09:16:49;24.70;99.90
31311;DHT22;17937;51.508;7.534;2022-10-16T09:19:29;24.80;99.90
31311;DHT22;17937;51.508;7.534;2022-10-16T09:21:57;25.30;99.90
31311;DHT22;17937;51.508;7.534;2022-10-16T09:24:25;25.30;99.40
31311;DHT22;17937;51.508;7.534;2022-10-16T09:26:51;25.30;99.30
31311;DHT22;17937;51.508;7.534;2022-10-16T09:29:19;25.20;99.80
31311;DHT22;17937;51.508;7.534;2022-10-16T09:31:51;24.70;99.90
31311;DHT22;17937;51.508;7.534;2022-10-16T09:36:56;23.40;99.90
31311;DHT22;17937;51.508;7.534;2022-10-16T09:39:23;23.10;99.90
31311;DHT22;17937;51.508;7.534;2022-10-16T09:41:48;23.30;99.90
31311;DHT22;17937;51.508;7.534;2022-10-16T09:44:30;23.70;99.90
31311;DHT22;17937;51.508;7.534;2022-10-16T09:49:38;23.70;99.90
31311;DHT22;17937;51.508;7.534;2022-10-16T09:52:14;24.10;99.90
31311;DHT22;17937;51.508;7.534;2022-10-16T09:54:54;24.70;99.90
31311;DHT22;17937;51.508;7.534;2022-10-16T09:57:21;24.80;98.40
31311;DHT22;17937;51.508;7.534;2022-10-16T09:59:49;24.70;99.90
31311;DHT22;17937;51.508;7.534;2022-10-16T10:02:17;24.90;99.80
31311;DHT22;17937;51.508;7.534;2022-10-16T10:05:02;24.60;99.90
31311;DHT22;17937;51.508;7.534;2022-10-16T10:07:39;24.70;98.80
31311;DHT22;17937;51.508;7.534;2022-10-16T10:10:20;25.00;98.10
31311;DHT22;17937;51.508;7.534;2022-10-16T10:12:47;25.00;96.60
31311;DHT22;17937;51.508;7.534;2022-10-16T10:15:13;24.10;99.00
31311;DHT22;17937;51.508;7.534;2022-10-16T10:17:52;23.50;99.90
31311;DHT22;17937;51.508;7.534;2022-10-16T10:20:28;23.70;99.90
31311;DHT22;17937;51.508;7.534;2022-10-16T10:22:54;23.50;99.90
31311;DHT22;17937;51.508;7.534;2022-10-16T10:38:59;23.00;99.90
31311;DHT22;17937;51.508;7.534;2022-10-16T10:58:54;22.80;99.90
31311;DHT22;17937;51.508;7.534;2022-10-16T11:01:39;22.90;99.90
31311;DHT22;17937;51.508;7.534;2022-10-16T11:04:30;22.90;99.90
31311;DHT22;17937;51.508;7.534;2022-10-16T11:07:15;23.00;99.90
31311;DHT22;17937;51.508;7.534;2022-10-16T11:09:53;22.70;99.90
31311;DHT22;17937;51.508;7.534;2022-10-16T11:12:22;22.60;99.90
31311;DHT22;17937;51.508;7.534;2022-10-16T11:15:17;22.40;99.90
31311;DHT22;17937;51.508;7.534;2022-10-16T11:17:51;22.30;99.90
31311;DHT22;17937;51.508;7.534;2022-10-16T11:20:24;22.30;99.90
31311;DHT22;17937;51.508;7.534;2022-10-16T11:22:56;22.00;99.90
31311;DHT22;17937;51.508;7.534;2022-10-16T11:25:31;21.90;99.90
31311;DHT22;17937;51.508;7.534;2022-10-16T11:31:28;21.90;99.90
31311;DHT22;17937;51.508;7.534;2022-10-16T11:33:39;21.60;99.90
31311;DHT22;17937;51.508;7.534;2022-10-16T11:36:14;21.50;99.90
31311;DHT22;17937;51.508;7.534;2022-10-16T11:41:47;21.70;99.90
31311;DHT22;17937;51.508;7.534;2022-10-16T11:49:31;22.10;99.90
31311;DHT22;17937;51.508;7.534;2022-10-16T11:57:45;21.40;99.90
31311;DHT22;17937;51.508;7.534;2022-10-16T12:00:40;21.30;99.90
31311;DHT22;17937;51.508;7.534;2022-10-16T12:06:16;21.90;99.90
31311;DHT22;17937;51.508;7.534;2022-10-16T12:08:45;22.00;99.90
31311;DHT22;17937;51.508;7.534;2022-10-16T12:14:03;22.00;99.90
31311;DHT22;17937;51.508;7.534;2022-10-16T12:16:29;22.10;99.90
31311;DHT22;17937;51.508;7.534;2022-10-16T12:21:35;22.30;99.90
31311;DHT22;17937;51.508;7.534;2022-10-16T12:24:03;22.30;99.90
31311;DHT22;17937;51.508;7.534;2022-10-16T12:26:33;22.40;99.90
31311;DHT22;17937;51.508;7.534;2022-10-16T12:31:49;22.50;99.90
31311;DHT22;17937;51.508;7.534;2022-10-16T12:34:28;22.10;99.90
31311;DHT22;17937;51.508;7.534;2022-10-16T12:36:55;21.80;99.90
31311;DHT22;17937;51.508;7.534;2022-10-16T12:39:25;21.90;99.90
31311;DHT22;17937;51.508;7.534;2022-10-16T12:42:04;21.90;99.90
31311;DHT22;17937;51.508;7.534;2022-10-16T12:44:35;21.80;99.90
31311;DHT22;17937;51.508;7.534;2022-10-16T12:47:01;21.90;99.90
31311;DHT22;17937;51.508;7.534;2022-10-16T12:49:37;22.00;99.90
31311;DHT22;17937;51.508;7.534;2022-10-16T12:52:04;22.10;99.90
31311;DHT22;17937;51.508;7.534;2022-10-16T12:54:35;22.10;99.90
31311;DHT22;17937;51.508;7.534;2022-10-16T12:57:25;22.30;99.90
31311;DHT22;17937;51.508;7.534;2022-10-16T13:02:51;22.50;99.90
31311;DHT22;17937;51.508;7.534;2022-10-16T13:08:48;22.10;99.90
31311;DHT22;17937;51.508;7.534;2022-10-16T13:11:47;21.90;99.90
31311;DHT22;17937;51.508;7.534;2022-10-16T13:22:22;21.10;99.90
31311;DHT22;17937;51.508;7.534;2022-10-16T13:25:14;21.00;99.90
31311;DHT22;17937;51.508;7.534;2022-10-16T13:30:21;20.90;99.90
31311;DHT22;17937;51.508;7.534;2022-10-16T13:32:53;21.00;99.90
31311;DHT22;17937;51.508;7.534;2022-10-16T13:35:22;21.30;99.90
31311;DHT22;17937;51.508;7.534;2022-10-16T13:37:48;21.40;99.90
31311;DHT22;17937;51.508;7.534;2022-10-16T13:40:22;21.40;99.90
31311;DHT22;17937;51.508;7.534;2022-10-16T13:42:50;21.40;99.90
31311;DHT22;17937;51.508;7.534;2022-10-16T13:45:24;21.60;99.90
31311;DHT22;17937;51.508;7.534;2022-10-16T13:48:08;21.50;99.90
31311;DHT22;17937;51.508;7.534;2022-10-16T13:50:35;21.20;99.90
31311;DHT22;17937;51.508;7.534;2022-10-16T13:53:12;21.00;99.90
31311;DHT22;17937;51.508;7.534;2022-10-16T13:55:38;20.90;99.90
31311;DHT22;17937;51.508;7.534;2022-10-16T13:58:14;20.90;99.90
31311;DHT22;17937;51.508;7.534;2022-10-16T14:00:52;21.10;99.90
31311;DHT22;17937;51.508;7.534;2022-10-16T14:03:18;21.20;99.90
31311;DHT22;17937;51.508;7.534;2022-10-16T14:05:50;21.30;99.90
31311;DHT22;17937;51.508;7.534;2022-10-16T14:08:16;21.30;99.90
31311;DHT22;17937;51.508;7.534;2022-10-16T14:10:42;21.40;99.90
31311;DHT22;17937;51.508;7.534;2022-10-16T14:13:12;21.30;99.90
31311;DHT22;17937;51.508;7.534;2022-10-16T14:15:40;21.10;99.90
31311;DHT22;17937;51.508;7.534;2022-10-16T14:18:05;20.80;99.90
31311;DHT22;17937;51.508;7.534;2022-10-16T14:20:33;20.50;99.90
31311;DHT22;17937;51.508;7.534;2022-10-16T14:23:04;20.40;99.90
31311;DHT22;17937;51.508;7.534;2022-10-16T14:25:43;20.40;99.90
31311;DHT22;17937;51.508;7.534;2022-10-16T14:28:20;20.40;99.90
31311;DHT22;17937;51.508;7.534;2022-10-16T14:30:51;20.30;99.90
31311;DHT22;17937;51.508;7.534;2022-10-16T14:38:34;20.20;99.90
31311;DHT22;17937;51.508;7.534;2022-10-16T14:41:01;20.10;99.90
31311;DHT22;17937;51.508;7.534;2022-10-16T14:43:39;20.10;99.90
31311;DHT22;17937;51.508;7.534;2022-10-16T14:46:12;20.00;99.90
31311;DHT22;17937;51.508;7.534;2022-10-16T14:48:42;19.80;99.90
31311;DHT22;17937;51.508;7.534;2022-10-16T14:51:18;19.70;99.90
31311;DHT22;17937;51.508;7.534;2022-10-16T14:53:44;19.60;99.90
31311;DHT22;17937;51.508;7.534;2022-10-16T14:56:21;19.50;99.90
31311;DHT22;17937;51.508;7.534;2022-10-16T14:58:48;19.40;99.90
31311;DHT22;17937;51.508;7.534;2022-10-16T15:01:15;19.30;99.90
31311;DHT22;17937;51.508;7.534;2022-10-16T15:03:40;19.20;99.90
31311;DHT22;17937;51.508;7.534;2022-10-16T15:06:11;19.20;99.90
31311;DHT22;17937;51.508;7.534;2022-10-16T15:08:37;19.20;99.90
31311;DHT22;17937;51.508;7.534;2022-10-16T15:11:03;19.10;99.90
31311;DHT22;17937;51.508;7.534;2022-10-16T15:13:29;19.10;99.90
31311;DHT22;17937;51.508;7.534;2022-10-16T15:15:55;19.00;99.90
31311;DHT22;17937;51.508;7.534;2022-10-16T15:18:20;19.00;99.90
31311;DHT22;17937;51.508;7.534;2022-10-16T15:20:50;18.90;99.90
31311;DHT22;17937;51.508;7.534;2022-10-16T15:23:18;18.90;99.90
31311;DHT22;17937;51.508;7.534;2022-10-16T15:25:49;18.80;99.90
31311;DHT22;17937;51.508;7.534;2022-10-16T15:28:16;18.70;99.90
31311;DHT22;17937;51.508;7.534;2022-10-16T15:30:43;18.50;99.90
31311;DHT22;17937;51.508;7.534;2022-10-16T15:33:17;18.30;99.90
31311;DHT22;17937;51.508;7.534;2022-10-16T15:35:46;18.20;99.90
31311;DHT22;17937;51.508;7.534;2022-10-16T15:38:13;18.00;99.90
31311;DHT22;17937;51.508;7.534;2022-10-16T15:40:39;17.90;99.90
31311;DHT22;17937;51.508;7.534;2022-10-16T15:43:05;17.80;99.90
31311;DHT22;17937;51.508;7.534;2022-10-16T15:45:31;17.80;99.90
31311;DHT22;17937;51.508;7.534;2022-10-16T15:47:56;17.70;99.90
31311;DHT22;17937;51.508;7.534;2022-10-16T15:50:22;17.70;99.90
31311;DHT22;17937;51.508;7.534;2022-10-16T15:52:48;17.70;99.90
31311;DHT22;17937;51.508;7.534;2022-10-16T15:55:15;17.60;99.90
31311;DHT22;17937;51.508;7.534;2022-10-16T15:57:41;17.60;99.90
31311;DHT22;17937;51.508;7.534;2022-10-16T16:00:10;17.60;99.90
31311;DHT22;17937;51.508;7.534;2022-10-16T16:02:36;17.50;99.90
31311;DHT22;17937;51.508;7.534;2022-10-16T16:05:02;17.50;99.90
31311;DHT22;17937;51.508;7.534;2022-10-16T16:07:31;17.40;99.90
31311;DHT22;17937;51.508;7.534;2022-10-16T16:09:57;17.40;99.90
31311;DHT22;17937;51.508;7.534;2022-10-16T16:12:23;17.30;99.90
31311;DHT22;17937;51.508;7.534;2022-10-16T16:14:48;17.30;99.90
31311;DHT22;17937;51.508;7.534;2022-10-16T16:17:14;17.30;99.90
31311;DHT22;17937;51.508;7.534;2022-10-16T16:19:40;17.20;99.90
31311;DHT22;17937;51.508;7.534;2022-10-16T16:22:05;17.20;99.90
31311;DHT22;17937;51.508;7.534;2022-10-16T16:24:31;17.20;99.90
31311;DHT22;17937;51.508;7.534;2022-10-16T16:26:56;17.10;99.90
31311;DHT22;17937;51.508;7.534;2022-10-16T16:29:22;17.20;99.90
31311;DHT22;17937;51.508;7.534;2022-10-16T16:31:47;17.10;99.90
31311;DHT22;17937;51.508;7.534;2022-10-16T16:34:14;17.10;99.90
31311;DHT22;17937;51.508;7.534;2022-10-16T16:36:39;17.00;99.90
31311;DHT22;17937;51.508;7.534;2022-10-16T16:39:06;17.00;99.90
31311;DHT22;17937;51.508;7.534;2022-10-16T16:41:33;17.00;99.90
31311;DHT22;17937;51.508;7.534;2022-10-16T16:44:06;16.90;99.90
31311;DHT22;17937;51.508;7.534;2022-10-16T16:46:33;16.90;99.90
31311;DHT22;17937;51.508;7.534;2022-10-16T16:49:00;16.80;99.90
31311;DHT22;17937;51.508;7.534;2022-10-16T16:51:26;16.80;99.90
31311;DHT22;17937;51.508;7.534;2022-10-16T16:53:54;16.70;99.90
31311;DHT22;17937;51.508;7.534;2022-10-16T16:56:21;16.70;99.90
31311;DHT22;17937;51.508;7.534;2022-10-16T16:58:51;16.70;99.90
31311;DHT22;17937;51.508;7.534;2022-10-16T17:01:17;16.60;99.90
31311;DHT22;17937;51.508;7.534;2022-10-16T17:03:44;16.60;99.90
31311;DHT22;17937;51.508;7.534;2022-10-16T17:06:11;16.50;99.90
31311;DHT22;17937;51.508;7.534;2022-10-16T17:08:37;16.50;99.90
31311;DHT22;17937;51.508;7.534;2022-10-16T17:11:04;16.40;99.90
31311;DHT22;17937;51.508;7.534;2022-10-16T17:13:32;16.50;99.90
31311;DHT22;17937;51.508;7.534;2022-10-16T17:16:00;16.50;99.90
31311;DHT22;17937;51.508;7.534;2022-10-16T17:18:26;16.40;99.90
31311;DHT22;17937;51.508;7.534;2022-10-16T17:20:52;16.40;99.90
31311;DHT22;17937;51.508;7.534;2022-10-16T17:23:18;16.30;99.90
31311;DHT22;17937;51.508;7.534;2022-10-16T17:25:44;16.30;99.90
31311;DHT22;17937;51.508;7.534;2022-10-16T17:28:11;16.30;99.90
31311;DHT22;17937;51.508;7.534;2022-10-16T17:30:40;16.30;99.90
31311;DHT22;17937;51.508;7.534;2022-10-16T17:33:08;16.30;99.90
31311;DHT22;17937;51.508;7.534;2022-10-16T17:35:43;16.30;99.90
31311;DHT22;17937;51.508;7.534;2022-10-16T17:38:10;16.30;99.90